Time;durP1;ratioP1;P1;durP2;ratioP2;P2;SDS_P1;SDS_P2;PMS_P1;PMS_P2;Temp;Humidity;BMP_temperature;BMP_pressure;BME280_temperature;BME280_humidity;BME280_pressure;Samples;Min_cycle;Max_cycle;Signal;HPM_P1;HPM_P2
2023/01/10 00:01:36;;;;;;;;;;;;;;;;;;4993020;28;1867;-39
2023/01/10 00:04:03;;;;;;;;;;;;;;;;;;4992992;28;2017;-39
2023/01/10 00:06:30;;;;;;;;;;;;;;;;;;4993164;28;1952;-40
2023/01/10 00:08:58;;;;;;;;;;;;;;;;;;4993091;28;2182;-40
2023/01/10 00:14:11;;;;;;;;;;;;;;;;;;4992874;28;2058;-40
2023/01/10 00:16:38;;;;;;;;;;;;;;;;;;4993021;28;2222;-39
2023/01/10 00:19:05;;;;;;;;;;;;;;;;;;4992924;28;1959;-39
2023/01/10 00:21:32;;;;;;;;;;;;;;;;;;4992795;28;1997;-40
2023/01/10 00:24:07;;;;;;;;;;;;;;;;;;4992786;28;2016;-39
2023/01/10 00:26:35;;;;;;;;;;;;;;;;;;4991274;28;1923;-39
2023/01/10 00:29:02;;;;;;;;;;;;;;;;;;4992900;28;2041;-40
2023/01/10 00:31:30;;;;;;;;;;;;;;;;;;4992577;28;1918;-40
2023/01/10 00:33:57;;;;;;;;;;;;;;;;;;4992721;28;2021;-40
2023/01/10 00:36:24;;;;;;;;;;;;;;;;;;4992710;28;1992;-39
2023/01/10 00:38:51;;;;;;;;;;;;;;;;;;4992631;28;2019;-39
2023/01/10 00:44:05;;;;;;;;;;;;;;;;;;4992239;28;2015;-39
2023/01/10 00:46:32;;;;;;;;;;;;;;;;;;4992389;28;2005;-39
2023/01/10 00:49:00;;;;;;;;;;;;;;;;;;4992422;28;2111;-40
2023/01/10 00:51:27;;;;;;;;;;;;;;;;;;4992836;28;2010;-40
2023/01/10 00:53:56;;;;;;;;;;;;;;;;;;4992418;28;1750;-40
2023/01/10 00:56:23;;;;;;;;;;;;;;;;;;4991841;28;2184;-39
2023/01/10 00:58:51;;;;;;;;;;;;;;;;;;4992305;28;2159;-39
2023/01/10 01:01:18;;;;;;;;;;;;;;;;;;4992324;28;2047;-39
2023/01/10 01:03:45;;;;;;;;;;;;;;;;;;4992181;28;1949;-40
2023/01/10 01:06:12;;;;;;;;;;;;;;;;;;4991982;28;2027;-40
2023/01/10 01:08:39;;;;;;;;;;;;;;;;;;4992075;28;2173;-40
2023/01/10 01:11:07;;;;;;;;;;;;;;;;;;4991948;28;2202;-39
2023/01/10 01:13:35;;;;;;;;;;;;;;;;;;4991999;28;1892;-40
2023/01/10 01:16:02;;;;;;;;;;;;;;;;;;4991859;28;2037;-40
2023/01/10 01:18:29;;;;;;;;;;;;;;;;;;4992168;28;2023;-39
2023/01/10 01:20:59;;;;;;;;;;;;;;;;;;4991665;28;1530;-40
2023/01/10 01:23:26;;;;;;;;;;;;;;;;;;4990536;28;1932;-39
2023/01/10 01:25:54;;;;;;;;;;;;;;;;;;4991730;28;1979;-40
2023/01/10 01:28:22;;;;;;;;;;;;;;;;;;4991843;28;2161;-40
2023/01/10 01:30:49;;;;;;;;;;;;;;;;;;4991767;28;1973;-40
2023/01/10 01:33:16;;;;;;;;;;;;;;;;;;4974414;28;1959;-40
2023/01/10 01:35:44;;;;;;;;;;;;;;;;;;4992076;28;2306;-40
2023/01/10 01:38:12;;;;;;;;;;;;;;;;;;4991784;28;1395;-39
2023/01/10 01:40:40;;;;;;;;;;;;;;;;;;4991537;28;1934;-40
2023/01/10 01:43:19;;;;;;;;;;;;;;;;;;4991622;28;2069;-39
2023/01/10 01:45:46;;;;;;;;;;;;;;;;;;4994395;28;1952;-40
2023/01/10 01:48:19;;;;;;;;;;;;;;;;;;4995767;28;2004;-40
2023/01/10 01:50:46;;;;;;;;;;;;;;;;;;4995570;28;1977;-39
2023/01/10 01:53:17;;;;;;;;;;;;;;;;;;4995524;28;2035;-40
2023/01/10 01:55:45;;;;;;;;;;;;;;;;;;4995497;28;1895;-40
2023/01/10 01:58:14;;;;;;;;;;;;;;;;;;4995338;28;1855;-40
2023/01/10 02:00:42;;;;;;;;;;;;;;;;;;4995547;28;2022;-40
2023/01/10 02:03:09;;;;;;;;;;;;;;;;;;4995339;28;2040;-40
2023/01/10 02:05:38;;;;;;;;;;;;;;;;;;4995346;28;1950;-40
2023/01/10 02:08:05;;;;;;;;;;;;;;;;;;4995281;28;2156;-39
2023/01/10 02:10:51;;;;;;;;;;;;;;;;;;4995471;28;2010;-40
2023/01/10 02:13:21;;;;;;;;;;;;;;;;;;4995234;28;1800;-39
2023/01/10 02:15:49;;;;;;;;;;;;;;;;;;4995289;28;1391;-40
2023/01/10 02:18:17;;;;;;;;;;;;;;;;;;4995097;28;2118;-39
2023/01/10 02:20:57;;;;;;;;;;;;;;;;;;4995111;28;2266;-40
2023/01/10 02:23:47;;;;;;;;;;;;;;;;;;4994625;28;1962;-36
2023/01/10 02:26:43;;;;;;;;;;;;;;;;;;4993554;28;2001;-39
2023/01/10 02:29:16;;;;;;;;;;;;;;;;;;4994953;28;1915;-40
2023/01/10 02:32:02;;;;;;;;;;;;;;;;;;4994532;28;1990;-41
2023/01/10 02:34:48;;;;;;;;;;;;;;;;;;4994800;28;2228;-39
2023/01/10 02:37:30;;;;;;;;;;;;;;;;;;4994680;28;2150;-39
2023/01/10 02:40:02;;;;;;;;;;;;;;;;;;4994667;28;2058;-40
2023/01/10 02:42:32;;;;;;;;;;;;;;;;;;4994703;28;1792;-39
2023/01/10 02:45:03;;;;;;;;;;;;;;;;;;4994575;28;1263;-40
2023/01/10 02:47:38;;;;;;;;;;;;;;;;;;4993213;28;2128;-39
2023/01/10 02:50:24;;;;;;;;;;;;;;;;;;4994744;28;2026;-41
2023/01/10 02:52:51;;;;;;;;;;;;;;;;;;4994675;28;1959;-39
2023/01/10 02:55:20;;;;;;;;;;;;;;;;;;4994113;28;1674;-39
2023/01/10 02:57:51;;;;;;;;;;;;;;;;;;4993487;28;2182;-39
2023/01/10 03:00:29;;;;;;;;;;;;;;;;;;4994439;28;1836;-40
2023/01/10 03:03:06;;;;;;;;;;;;;;;;;;4994006;28;1832;-39
2023/01/10 03:05:39;;;;;;;;;;;;;;;;;;4994413;28;2086;-40
2023/01/10 03:08:17;;;;;;;;;;;;;;;;;;4994263;28;2123;-40
2023/01/10 03:10:51;;;;;;;;;;;;;;;;;;4994025;28;2122;-40
2023/01/10 03:13:39;;;;;;;;;;;;;;;;;;4993958;28;2176;-39
2023/01/10 03:16:08;;;;;;;;;;;;;;;;;;4993911;28;1804;-39
2023/01/10 03:18:40;;;;;;;;;;;;;;;;;;4994417;28;1895;-40
2023/01/10 03:21:09;;;;;;;;;;;;;;;;;;4994012;28;2027;-39
2023/01/10 03:23:36;;;;;;;;;;;;;;;;;;4993976;28;2163;-40
2023/01/10 03:26:05;;;;;;;;;;;;;;;;;;4994206;28;1532;-39
2023/01/10 03:28:37;;;;;;;;;;;;;;;;;;4993698;28;2358;-39
2023/01/10 03:31:10;;;;;;;;;;;;;;;;;;4993845;28;1908;-39
2023/01/10 03:33:37;;;;;;;;;;;;;;;;;;4993810;28;1970;-39
2023/01/10 03:36:05;;;;;;;;;;;;;;;;;;4993839;28;2151;-39
2023/01/10 03:38:48;;;;;;;;;;;;;;;;;;4993555;28;2129;-39
2023/01/10 03:41:21;;;;;;;;;;;;;;;;;;4992452;28;1931;-40
2023/01/10 03:46:50;;;;;;;;;;;;;;;;;;4993532;28;1843;-40
2023/01/10 03:49:18;;;;;;;;;;;;;;;;;;5012915;28;2034;-40
2023/01/10 03:51:46;;;;;;;;;;;;;;;;;;5012826;28;2262;-40
2023/01/10 03:54:15;;;;;;;;;;;;;;;;;;5012816;28;1951;-39
2023/01/10 03:56:43;;;;;;;;;;;;;;;;;;5012866;28;1846;-41
2023/01/10 03:59:11;;;;;;;;;;;;;;;;;;5012866;28;2013;-39
2023/01/10 04:01:38;;;;;;;;;;;;;;;;;;4995365;28;1597;-40
2023/01/10 04:04:05;;;;;;;;;;;;;;;;;;5012742;28;1986;-39
2023/01/10 04:06:33;;;;;;;;;;;;;;;;;;5012619;28;1844;-40
2023/01/10 04:09:00;;;;;;;;;;;;;;;;;;5012458;28;1921;-40
2023/01/10 04:11:27;;;;;;;;;;;;;;;;;;5012587;28;1987;-40
2023/01/10 04:13:54;;;;;;;;;;;;;;;;;;5012390;28;1882;-40
2023/01/10 04:16:21;;;;;;;;;;;;;;;;;;5012444;28;2039;-40
2023/01/10 04:18:48;;;;;;;;;;;;;;;;;;5012629;28;2135;-40
2023/01/10 04:21:16;;;;;;;;;;;;;;;;;;5012333;28;2032;-40
2023/01/10 04:23:43;;;;;;;;;;;;;;;;;;5012589;28;1994;-40
2023/01/10 04:26:10;;;;;;;;;;;;;;;;;;4998517;28;1959;-40
2023/01/10 04:28:38;;;;;;;;;;;;;;;;;;4992636;28;1876;-40
2023/01/10 04:31:05;;;;;;;;;;;;;;;;;;4992493;28;1908;-40
2023/01/10 04:33:32;;;;;;;;;;;;;;;;;;4992418;28;1998;-40
2023/01/10 04:35:59;;;;;;;;;;;;;;;;;;4992574;28;1909;-39
2023/01/10 04:38:26;;;;;;;;;;;;;;;;;;4992500;28;1906;-40
2023/01/10 04:40:54;;;;;;;;;;;;;;;;;;4992400;28;2308;-40
2023/01/10 04:43:22;;;;;;;;;;;;;;;;;;4992452;28;2191;-42
2023/01/10 04:45:49;;;;;;;;;;;;;;;;;;4992358;28;2056;-40
2023/01/10 04:48:17;;;;;;;;;;;;;;;;;;4992408;28;2467;-39
2023/01/10 04:50:53;;;;;;;;;;;;;;;;;;4992390;28;1963;-40
2023/01/10 04:53:21;;;;;;;;;;;;;;;;;;4992009;28;1805;-40
2023/01/10 04:55:48;;;;;;;;;;;;;;;;;;4992326;28;1619;-40
2023/01/10 04:58:15;;;;;;;;;;;;;;;;;;4992288;28;2038;-40
2023/01/10 05:00:42;;;;;;;;;;;;;;;;;;4992334;28;1644;-39
2023/01/10 05:03:10;;;;;;;;;;;;;;;;;;4992153;28;2072;-40
2023/01/10 05:05:37;;;;;;;;;;;;;;;;;;4991988;28;1925;-40
2023/01/10 05:08:04;;;;;;;;;;;;;;;;;;4991958;28;1892;-39
2023/01/10 05:10:31;;;;;;;;;;;;;;;;;;4992003;28;2084;-40
2023/01/10 05:12:58;;;;;;;;;;;;;;;;;;4991783;28;2055;-39
2023/01/10 05:15:25;;;;;;;;;;;;;;;;;;4991981;28;1997;-39
2023/01/10 05:17:57;;;;;;;;;;;;;;;;;;4991925;28;2161;-40
2023/01/10 05:20:24;;;;;;;;;;;;;;;;;;4991115;28;1827;-40
2023/01/10 05:22:51;;;;;;;;;;;;;;;;;;4991633;28;2185;-40
2023/01/10 05:25:18;;;;;;;;;;;;;;;;;;4991728;28;2249;-39
2023/01/10 05:27:45;;;;;;;;;;;;;;;;;;4991981;28;1661;-39
2023/01/10 05:30:13;;;;;;;;;;;;;;;;;;4991946;28;2177;-44
2023/01/10 05:32:40;;;;;;;;;;;;;;;;;;4991552;28;1949;-39
2023/01/10 05:35:10;;;;;;;;;;;;;;;;;;4991590;28;1903;-40
2023/01/10 05:37:37;;;;;;;;;;;;;;;;;;4991497;28;2093;-40
2023/01/10 05:40:05;;;;;;;;;;;;;;;;;;4991757;28;1990;-39
2023/01/10 05:42:32;;;;;;;;;;;;;;;;;;4991738;28;2390;-40
2023/01/10 05:44:59;;;;;;;;;;;;;;;;;;4991394;28;1796;-39
2023/01/10 05:47:26;;;;;;;;;;;;;;;;;;4991436;28;2122;-40
2023/01/10 05:49:53;;;;;;;;;;;;;;;;;;4991480;28;1943;-41
2023/01/10 05:52:20;;;;;;;;;;;;;;;;;;4991481;28;1983;-40
2023/01/10 05:54:47;;;;;;;;;;;;;;;;;;4991473;28;2064;-39
2023/01/10 05:57:15;;;;;;;;;;;;;;;;;;4991773;28;1918;-39
2023/01/10 05:59:42;;;;;;;;;;;;;;;;;;4990034;28;2192;-39
2023/01/10 06:02:09;;;;;;;;;;;;;;;;;;4991326;28;2124;-40
2023/01/10 06:04:36;;;;;;;;;;;;;;;;;;4991589;28;2059;-40
2023/01/10 06:07:03;;;;;;;;;;;;;;;;;;4991320;28;2082;-40
2023/01/10 06:09:31;;;;;;;;;;;;;;;;;;4991560;28;2227;-40
2023/01/10 06:11:58;;;;;;;;;;;;;;;;;;4991290;28;1972;-40
2023/01/10 06:14:25;;;;;;;;;;;;;;;;;;4991317;28;1835;-39
2023/01/10 06:16:53;;;;;;;;;;;;;;;;;;4991157;28;1737;-39
2023/01/10 06:19:20;;;;;;;;;;;;;;;;;;4991421;28;1895;-40
2023/01/10 06:21:47;;;;;;;;;;;;;;;;;;4991581;28;1985;-40
2023/01/10 06:24:14;;;;;;;;;;;;;;;;;;4991418;28;1953;-39
2023/01/10 06:26:41;;;;;;;;;;;;;;;;;;4991398;28;2023;-39
2023/01/10 06:29:09;;;;;;;;;;;;;;;;;;4991174;28;2077;-39
2023/01/10 06:31:38;;;;;;;;;;;;;;;;;;4993726;28;2207;-41
2023/01/10 06:34:05;;;;;;;;;;;;;;;;;;4994851;28;1929;-39
2023/01/10 06:36:32;;;;;;;;;;;;;;;;;;4994835;28;2043;-40
2023/01/10 06:39:00;;;;;;;;;;;;;;;;;;4994773;28;1995;-39
2023/01/10 06:41:27;;;;;;;;;;;;;;;;;;4994693;28;1096;-40
2023/01/10 06:43:54;;;;;;;;;;;;;;;;;;4994326;28;1822;-40
2023/01/10 06:46:24;;;;;;;;;;;;;;;;;;4994530;28;1933;-40
2023/01/10 06:48:51;;;;;;;;;;;;;;;;;;4994838;28;1858;-40
2023/01/10 06:51:18;;;;;;;;;;;;;;;;;;4994556;28;2111;-40
2023/01/10 06:53:46;;;;;;;;;;;;;;;;;;4994478;28;2000;-40
2023/01/10 06:56:13;;;;;;;;;;;;;;;;;;4994335;28;2013;-40
2023/01/10 06:58:40;;;;;;;;;;;;;;;;;;4994332;28;1951;-40
2023/01/10 07:01:14;;;;;;;;;;;;;;;;;;4994216;28;1391;-40
2023/01/10 07:03:42;;;;;;;;;;;;;;;;;;4994205;28;2007;-39
2023/01/10 07:06:09;;;;;;;;;;;;;;;;;;4994266;28;1993;-40
2023/01/10 07:08:37;;;;;;;;;;;;;;;;;;4993953;28;2095;-39
2023/01/10 07:11:04;;;;;;;;;;;;;;;;;;4994191;28;2078;-39
2023/01/10 07:13:32;;;;;;;;;;;;;;;;;;4992814;28;1877;-40
2023/01/10 07:16:06;;;;;;;;;;;;;;;;;;4993999;28;2308;-41
2023/01/10 07:18:35;;;;;;;;;;;;;;;;;;4994056;28;1955;-40
2023/01/10 07:21:02;;;;;;;;;;;;;;;;;;4993898;28;1926;-40
2023/01/10 07:23:30;;;;;;;;;;;;;;;;;;4993796;28;1922;-40
2023/01/10 07:25:58;;;;;;;;;;;;;;;;;;4993874;28;1930;-40
2023/01/10 07:28:25;;;;;;;;;;;;;;;;;;4993878;28;2062;-40
2023/01/10 07:30:52;;;;;;;;;;;;;;;;;;4994020;28;1860;-40
2023/01/10 07:33:19;;;;;;;;;;;;;;;;;;4993622;28;1973;-40
2023/01/10 07:35:46;;;;;;;;;;;;;;;;;;4993578;28;1883;-44
2023/01/10 07:38:13;;;;;;;;;;;;;;;;;;4993690;28;2262;-39
2023/01/10 07:40:41;;;;;;;;;;;;;;;;;;4993647;28;2137;-40
2023/01/10 07:43:08;;;;;;;;;;;;;;;;;;4992893;28;2193;-39
2023/01/10 07:45:35;;;;;;;;;;;;;;;;;;4993183;28;2108;-40
2023/01/10 07:48:03;;;;;;;;;;;;;;;;;;4993473;28;2097;-40
2023/01/10 07:50:32;;;;;;;;;;;;;;;;;;4993180;28;1837;-40
2023/01/10 07:53:00;;;;;;;;;;;;;;;;;;4976143;28;2022;-39
2023/01/10 07:55:27;;;;;;;;;;;;;;;;;;4976040;28;1548;-39
2023/01/10 07:57:55;;;;;;;;;;;;;;;;;;4993415;28;1907;-40
2023/01/10 08:00:22;;;;;;;;;;;;;;;;;;4993441;28;1926;-40
2023/01/10 08:02:51;;;;;;;;;;;;;;;;;;4993046;28;2362;-40
2023/01/10 08:05:19;;;;;;;;;;;;;;;;;;4993091;28;2242;-40
2023/01/10 08:07:46;;;;;;;;;;;;;;;;;;4993339;28;2113;-39
2023/01/10 08:10:14;;;;;;;;;;;;;;;;;;4992957;28;1991;-40
2023/01/10 08:12:41;;;;;;;;;;;;;;;;;;4993005;28;1971;-40
2023/01/10 08:15:09;;;;;;;;;;;;;;;;;;4993002;28;2131;-41
2023/01/10 08:17:36;;;;;;;;;;;;;;;;;;4992922;28;1968;-40
2023/01/10 08:20:03;;;;;;;;;;;;;;;;;;4992858;28;2006;-40
2023/01/10 08:22:30;;;;;;;;;;;;;;;;;;4992693;28;2121;-40
2023/01/10 08:24:58;;;;;;;;;;;;;;;;;;4992726;28;2115;-40
2023/01/10 08:27:25;;;;;;;;;;;;;;;;;;4992777;28;2008;-39
2023/01/10 08:29:52;;;;;;;;;;;;;;;;;;4992763;28;1970;-40
2023/01/10 08:32:19;;;;;;;;;;;;;;;;;;4992535;28;1936;-40
2023/01/10 08:34:46;;;;;;;;;;;;;;;;;;4992546;28;2210;-40
2023/01/10 08:37:14;;;;;;;;;;;;;;;;;;4992396;28;1578;-39
2023/01/10 08:39:41;;;;;;;;;;;;;;;;;;4992416;28;2071;-40
2023/01/10 08:42:08;;;;;;;;;;;;;;;;;;4992155;28;1990;-39
2023/01/10 08:44:35;;;;;;;;;;;;;;;;;;4992170;28;2046;-40
2023/01/10 08:47:03;;;;;;;;;;;;;;;;;;4992163;28;2039;-40
2023/01/10 08:49:30;;;;;;;;;;;;;;;;;;4992302;28;1547;-39
2023/01/10 08:51:57;;;;;;;;;;;;;;;;;;4992370;28;2008;-41
2023/01/10 08:54:24;;;;;;;;;;;;;;;;;;4991171;28;2163;-40
2023/01/10 08:56:51;;;;;;;;;;;;;;;;;;4992220;28;1893;-40
2023/01/10 08:59:18;;;;;;;;;;;;;;;;;;4991910;28;1927;-39
2023/01/10 09:01:45;;;;;;;;;;;;;;;;;;4992073;28;1975;-40
2023/01/10 09:04:13;;;;;;;;;;;;;;;;;;4992118;28;1799;-40
2023/01/10 09:06:40;;;;;;;;;;;;;;;;;;4991911;28;2110;-40
2023/01/10 09:09:08;;;;;;;;;;;;;;;;;;4991979;28;2004;-40
2023/01/10 09:11:35;;;;;;;;;;;;;;;;;;4991783;28;1917;-39
2023/01/10 09:14:02;;;;;;;;;;;;;;;;;;4991921;28;2166;-40
2023/01/10 09:16:29;;;;;;;;;;;;;;;;;;4992148;28;2151;-40
2023/01/10 09:18:57;;;;;;;;;;;;;;;;;;4992057;28;2240;-40
2023/01/10 09:21:24;;;;;;;;;;;;;;;;;;4991747;28;1965;-40
2023/01/10 09:23:51;;;;;;;;;;;;;;;;;;4991798;28;2216;-40
2023/01/10 09:26:18;;;;;;;;;;;;;;;;;;4991826;28;2126;-40
2023/01/10 09:28:47;;;;;;;;;;;;;;;;;;4991771;28;1967;-40
2023/01/10 09:31:17;;;;;;;;;;;;;;;;;;4991885;28;1781;-39
2023/01/10 09:33:45;;;;;;;;;;;;;;;;;;4991625;28;2051;-39
2023/01/10 09:36:14;;;;;;;;;;;;;;;;;;4994426;28;2145;-40
2023/01/10 09:38:42;;;;;;;;;;;;;;;;;;5011132;28;1925;-40
2023/01/10 09:41:21;;;;;;;;;;;;;;;;;;5011512;28;2003;-41
2023/01/10 09:43:54;;;;;;;;;;;;;;;;;;5011104;28;1993;-40
2023/01/10 09:46:40;;;;;;;;;;;;;;;;;;5011145;28;1990;-41
2023/01/10 09:49:22;;;;;;;;;;;;;;;;;;5011087;28;1754;-40
2023/01/10 09:51:50;;;;;;;;;;;;;;;;;;5011082;28;2043;-42
2023/01/10 09:54:25;;;;;;;;;;;;;;;;;;5011147;28;2009;-43
2023/01/10 09:56:53;;;;;;;;;;;;;;;;;;5011086;28;1871;-41
2023/01/10 09:59:23;;;;;;;;;;;;;;;;;;5011106;28;1868;-41
2023/01/10 10:02:13;;;;;;;;;;;;;;;;;;5010802;28;1946;-40
2023/01/10 10:04:45;;;;;;;;;;;;;;;;;;5005884;28;1700;-41
2023/01/10 10:07:13;;;;;;;;;;;;;;;;;;5013385;28;2174;-39
2023/01/10 10:09:41;;;;;;;;;;;;;;;;;;5014827;28;1894;-41
2023/01/10 10:12:22;;;;;;;;;;;;;;;;;;5014508;28;1982;-41
2023/01/10 10:15:02;;;;;;;;;;;;;;;;;;5014804;28;1740;-43
2023/01/10 10:17:39;;;;;;;;;;;;;;;;;;5013549;28;2103;-42
2023/01/10 10:20:18;;;;;;;;;;;;;;;;;;5014688;28;2015;-41
2023/01/10 10:22:52;;;;;;;;;;;;;;;;;;4997142;28;1907;-42
2023/01/10 10:25:23;;;;;;;;;;;;;;;;;;5014631;28;2070;-41
2023/01/10 10:27:56;;;;;;;;;;;;;;;;;;5014660;28;1917;-41
2023/01/10 10:30:27;;;;;;;;;;;;;;;;;;5014505;28;1969;-41
2023/01/10 10:32:54;;;;;;;;;;;;;;;;;;5014105;28;2039;-44
2023/01/10 10:35:28;;;;;;;;;;;;;;;;;;5014280;28;1665;-46
2023/01/10 10:37:57;;;;;;;;;;;;;;;;;;4995559;28;2083;-42
2023/01/10 10:40:27;;;;;;;;;;;;;;;;;;4994963;28;1892;-41
2023/01/10 10:42:55;;;;;;;;;;;;;;;;;;4994488;28;1966;-41
2023/01/10 10:45:40;;;;;;;;;;;;;;;;;;4994297;28;1955;-41
2023/01/10 10:48:30;;;;;;;;;;;;;;;;;;4994422;28;1978;-45
2023/01/10 10:51:06;;;;;;;;;;;;;;;;;;4994491;28;2045;-41
2023/01/10 10:53:34;;;;;;;;;;;;;;;;;;4994572;28;1937;-42
2023/01/10 10:56:03;;;;;;;;;;;;;;;;;;4994325;28;1984;-44
2023/01/10 10:58:31;;;;;;;;;;;;;;;;;;4994303;28;2463;-43
2023/01/10 11:00:59;;;;;;;;;;;;;;;;;;4994314;28;1743;-45
2023/01/10 11:03:29;;;;;;;;;;;;;;;;;;4994317;28;2090;-47
2023/01/10 11:05:59;;;;;;;;;;;;;;;;;;4994227;28;1929;-46
2023/01/10 11:08:28;;;;;;;;;;;;;;;;;;4993869;28;1996;-45
2023/01/10 11:10:56;;;;;;;;;;;;;;;;;;4993939;28;1683;-48
2023/01/10 11:13:35;;;;;;;;;;;;;;;;;;4993845;28;2088;-47
2023/01/10 11:16:06;;;;;;;;;;;;;;;;;;4993942;28;1955;-45
2023/01/10 11:18:33;;;;;;;;;;;;;;;;;;4992833;28;1973;-44
2023/01/10 11:21:07;;;;;;;;;;;;;;;;;;4993769;28;1969;-44
2023/01/10 11:23:42;;;;;;;;;;;;;;;;;;4993901;28;1997;-42
2023/01/10 11:26:23;;;;;;;;;;;;;;;;;;4994014;28;1835;-44
2023/01/10 11:28:52;;;;;;;;;;;;;;;;;;4993676;28;1878;-41
2023/01/10 11:31:29;;;;;;;;;;;;;;;;;;4993696;28;1977;-40
2023/01/10 11:33:56;;;;;;;;;;;;;;;;;;4993524;28;2188;-40
2023/01/10 11:36:23;;;;;;;;;;;;;;;;;;4993813;28;1933;-40
2023/01/10 11:39:02;;;;;;;;;;;;;;;;;;4993548;28;2272;-40
2023/01/10 11:41:33;;;;;;;;;;;;;;;;;;4993457;28;2084;-40
2023/01/10 11:44:20;;;;;;;;;;;;;;;;;;4993362;28;2023;-40
2023/01/10 11:46:48;;;;;;;;;;;;;;;;;;4993537;28;2017;-39
2023/01/10 11:49:20;;;;;;;;;;;;;;;;;;4975968;28;1934;-39
2023/01/10 11:51:49;;;;;;;;;;;;;;;;;;4993297;28;2098;-40
2023/01/10 11:54:20;;;;;;;;;;;;;;;;;;4993153;28;2241;-40
2023/01/10 11:56:53;;;;;;;;;;;;;;;;;;4993283;28;1818;-39
2023/01/10 11:59:21;;;;;;;;;;;;;;;;;;4993186;28;2053;-40
2023/01/10 12:02:11;;;;;;;;;;;;;;;;;;4993185;28;2130;-41
2023/01/10 12:04:40;;;;;;;;;;;;;;;;;;4993243;28;1965;-40
2023/01/10 12:07:09;;;;;;;;;;;;;;;;;;4993348;28;1976;-41
2023/01/10 12:09:56;;;;;;;;;;;;;;;;;;4993083;28;2174;-40
2023/01/10 12:12:27;;;;;;;;;;;;;;;;;;4993123;28;1625;-40
2023/01/10 12:14:55;;;;;;;;;;;;;;;;;;4992799;28;1983;-40
2023/01/10 12:17:23;;;;;;;;;;;;;;;;;;4992970;28;1648;-41
2023/01/10 12:19:52;;;;;;;;;;;;;;;;;;4992787;28;1873;-40
2023/01/10 12:22:21;;;;;;;;;;;;;;;;;;4992755;28;2072;-40
2023/01/10 12:24:49;;;;;;;;;;;;;;;;;;4992669;28;1329;-40
2023/01/10 12:27:17;;;;;;;;;;;;;;;;;;4992676;28;2354;-40
2023/01/10 12:29:53;;;;;;;;;;;;;;;;;;4992524;28;1911;-40
2023/01/10 12:32:23;;;;;;;;;;;;;;;;;;4992560;28;1932;-40
2023/01/10 12:35:00;;;;;;;;;;;;;;;;;;4992556;28;2035;-43
2023/01/10 12:37:41;;;;;;;;;;;;;;;;;;4992429;28;2013;-40
2023/01/10 12:40:14;;;;;;;;;;;;;;;;;;4992411;28;1842;-41
2023/01/10 12:46:05;;;;;;;;;;;;;;;;;;4975424;28;1911;-40
2023/01/10 12:48:47;;;;;;;;;;;;;;;;;;4992431;28;2025;-44
2023/01/10 12:51:17;;;;;;;;;;;;;;;;;;4992596;28;1134;-40
2023/01/10 12:53:51;;;;;;;;;;;;;;;;;;4992349;28;1975;-40
2023/01/10 12:56:19;;;;;;;;;;;;;;;;;;4992095;28;1834;-39
2023/01/10 12:58:48;;;;;;;;;;;;;;;;;;4990550;28;2057;-39
2023/01/10 13:01:17;;;;;;;;;;;;;;;;;;4992281;28;1913;-40
2023/01/10 13:03:45;;;;;;;;;;;;;;;;;;4975338;28;1981;-40
2023/01/10 13:06:19;;;;;;;;;;;;;;;;;;4992147;28;1895;-40
2023/01/10 13:08:47;;;;;;;;;;;;;;;;;;4991971;28;1948;-40
2023/01/10 13:11:15;;;;;;;;;;;;;;;;;;4992074;28;1940;-40
2023/01/10 13:13:44;;;;;;;;;;;;;;;;;;4975036;28;2105;-40
2023/01/10 13:16:17;;;;;;;;;;;;;;;;;;4992101;28;2062;-40
2023/01/10 13:18:58;;;;;;;;;;;;;;;;;;4992160;28;2198;-40
2023/01/10 13:21:25;;;;;;;;;;;;;;;;;;4991755;28;2213;-45
2023/01/10 13:23:56;;;;;;;;;;;;;;;;;;4991870;28;2005;-40
2023/01/10 13:26:23;;;;;;;;;;;;;;;;;;4991931;28;2289;-40
2023/01/10 13:28:52;;;;;;;;;;;;;;;;;;4991865;28;1722;-40
2023/01/10 13:31:32;;;;;;;;;;;;;;;;;;4991852;28;1850;-42
2023/01/10 13:33:59;;;;;;;;;;;;;;;;;;4992123;28;2122;-40
2023/01/10 13:36:34;;;;;;;;;;;;;;;;;;4991476;28;1589;-38
2023/01/10 13:39:03;;;;;;;;;;;;;;;;;;4991666;28;2170;-41
2023/01/10 13:45:15;;;;;;;;;;;;;;;;;;4992386;28;2019;-41
2023/01/10 13:47:42;;;;;;;;;;;;;;;;;;4989489;28;2038;-40
2023/01/10 13:50:22;;;;;;;;;;;;;;;;;;4998020;28;2096;-40
2023/01/10 13:52:50;;;;;;;;;;;;;;;;;;4998108;28;1979;-40
2023/01/10 13:55:20;;;;;;;;;;;;;;;;;;4998246;28;2049;-40
2023/01/10 13:57:51;;;;;;;;;;;;;;;;;;4998208;28;2350;-40
2023/01/10 14:03:40;;;;;;;;;;;;;;;;;;4945275;28;2074;-40
2023/01/10 14:06:26;;;;;;;;;;;;;;;;;;4997998;28;1898;-39
2023/01/10 14:08:55;;;;;;;;;;;;;;;;;;4997922;28;1918;-40
2023/01/10 14:11:24;;;;;;;;;;;;;;;;;;4997723;28;2214;-40
2023/01/10 14:13:55;;;;;;;;;;;;;;;;;;4997544;28;2027;-40
2023/01/10 14:16:36;;;;;;;;;;;;;;;;;;4997925;28;1992;-40
2023/01/10 14:19:20;;;;;;;;;;;;;;;;;;4998020;28;2147;-40
2023/01/10 14:21:50;;;;;;;;;;;;;;;;;;4997917;28;2042;-39
2023/01/10 14:24:23;;;;;;;;;;;;;;;;;;4997888;28;1863;-40
2023/01/10 14:26:52;;;;;;;;;;;;;;;;;;4997670;28;2043;-40
2023/01/10 14:29:22;;;;;;;;;;;;;;;;;;4997877;28;1978;-40
2023/01/10 14:31:54;;;;;;;;;;;;;;;;;;4997667;28;1948;-44
2023/01/10 14:34:23;;;;;;;;;;;;;;;;;;4996686;28;1908;-39
2023/01/10 14:36:58;;;;;;;;;;;;;;;;;;4996593;28;1937;-39
2023/01/10 14:39:27;;;;;;;;;;;;;;;;;;4997660;28;2139;-39
2023/01/10 14:41:57;;;;;;;;;;;;;;;;;;4997848;28;2212;-40
2023/01/10 14:44:36;;;;;;;;;;;;;;;;;;4996163;28;2054;-40
2023/01/10 14:47:03;;;;;;;;;;;;;;;;;;4994462;28;2142;-40
2023/01/10 14:49:36;;;;;;;;;;;;;;;;;;4995014;28;1810;-39
2023/01/10 14:52:16;;;;;;;;;;;;;;;;;;4993452;28;1989;-40
2023/01/10 14:54:43;;;;;;;;;;;;;;;;;;4991755;28;1932;-39
2023/01/10 14:57:19;;;;;;;;;;;;;;;;;;4991990;28;1785;-39
2023/01/10 14:59:48;;;;;;;;;;;;;;;;;;4992503;28;1815;-39
2023/01/10 15:02:21;;;;;;;;;;;;;;;;;;4994120;28;1784;-39
2023/01/10 15:04:54;;;;;;;;;;;;;;;;;;4994476;28;2022;-39
2023/01/10 15:07:22;;;;;;;;;;;;;;;;;;4994092;28;2078;-40
2023/01/10 15:09:51;;;;;;;;;;;;;;;;;;4994345;28;2281;-40
2023/01/10 15:12:19;;;;;;;;;;;;;;;;;;4994115;28;2068;-40
2023/01/10 15:14:48;;;;;;;;;;;;;;;;;;4994054;28;2028;-39
2023/01/10 15:17:18;;;;;;;;;;;;;;;;;;4993913;28;2053;-39
2023/01/10 15:19:48;;;;;;;;;;;;;;;;;;4994103;28;1843;-40
2023/01/10 15:22:22;;;;;;;;;;;;;;;;;;4993990;28;1739;-40
2023/01/10 15:25:15;;;;;;;;;;;;;;;;;;4993061;28;2015;-39
2023/01/10 15:27:44;;;;;;;;;;;;;;;;;;4986616;28;1980;-41
2023/01/10 15:30:17;;;;;;;;;;;;;;;;;;4992002;28;1708;-40
2023/01/10 15:32:48;;;;;;;;;;;;;;;;;;4991642;28;1842;-40
2023/01/10 15:35:15;;;;;;;;;;;;;;;;;;4991700;28;2035;-45
2023/01/10 15:37:50;;;;;;;;;;;;;;;;;;4991935;28;2183;-40
2023/01/10 15:40:43;;;;;;;;;;;;;;;;;;4993145;28;1976;-39
2023/01/10 15:43:23;;;;;;;;;;;;;;;;;;4992465;28;1993;-39
2023/01/10 15:45:51;;;;;;;;;;;;;;;;;;4993503;28;1872;-42
2023/01/10 15:48:37;;;;;;;;;;;;;;;;;;4993465;28;2233;-39
2023/01/10 15:51:10;;;;;;;;;;;;;;;;;;4993465;28;1825;-39
2023/01/10 15:53:51;;;;;;;;;;;;;;;;;;4993364;28;1908;-39
2023/01/10 15:56:21;;;;;;;;;;;;;;;;;;4993412;28;2082;-40
2023/01/10 15:58:48;;;;;;;;;;;;;;;;;;4993378;28;2105;-40
2023/01/10 16:01:15;;;;;;;;;;;;;;;;;;4991986;28;1999;-39
2023/01/10 16:03:52;;;;;;;;;;;;;;;;;;4992758;28;1849;-39
2023/01/10 16:06:41;;;;;;;;;;;;;;;;;;4992818;28;2009;-40
2023/01/10 16:09:18;;;;;;;;;;;;;;;;;;4993115;28;1255;-40
2023/01/10 16:14:38;;;;;;;;;;;;;;;;;;4992706;28;2192;-40
2023/01/10 16:17:06;;;;;;;;;;;;;;;;;;4992957;28;2141;-40
2023/01/10 16:19:33;;;;;;;;;;;;;;;;;;4992812;28;2133;-40
2023/01/10 16:22:00;;;;;;;;;;;;;;;;;;4992891;28;1900;-40
2023/01/10 16:24:32;;;;;;;;;;;;;;;;;;4992799;28;2015;-40
2023/01/10 16:27:02;;;;;;;;;;;;;;;;;;4992749;28;1667;-40
2023/01/10 16:29:29;;;;;;;;;;;;;;;;;;4992758;28;2175;-40
2023/01/10 16:31:56;;;;;;;;;;;;;;;;;;4992909;28;2368;-42
2023/01/10 16:34:24;;;;;;;;;;;;;;;;;;4992640;28;1932;-40
2023/01/10 16:36:51;;;;;;;;;;;;;;;;;;4992356;28;2275;-40
2023/01/10 16:39:20;;;;;;;;;;;;;;;;;;4992659;28;2118;-39
2023/01/10 16:44:33;;;;;;;;;;;;;;;;;;4992345;28;2067;-39
2023/01/10 16:47:01;;;;;;;;;;;;;;;;;;4992293;28;1526;-40
2023/01/10 16:49:31;;;;;;;;;;;;;;;;;;4992399;28;2136;-40
2023/01/10 16:51:58;;;;;;;;;;;;;;;;;;4992355;28;1373;-39
2023/01/10 16:54:27;;;;;;;;;;;;;;;;;;4992254;28;2132;-40
2023/01/10 16:56:54;;;;;;;;;;;;;;;;;;4992281;28;2131;-39
2023/01/10 16:59:21;;;;;;;;;;;;;;;;;;4992045;28;1881;-40
2023/01/10 17:01:51;;;;;;;;;;;;;;;;;;4991885;28;2125;-40
2023/01/10 17:04:20;;;;;;;;;;;;;;;;;;4992016;28;2127;-40
2023/01/10 17:06:47;;;;;;;;;;;;;;;;;;4991847;28;1913;-39
2023/01/10 17:09:25;;;;;;;;;;;;;;;;;;4992120;28;1700;-40
2023/01/10 17:11:55;;;;;;;;;;;;;;;;;;4991843;28;2102;-39
2023/01/10 17:14:22;;;;;;;;;;;;;;;;;;4991519;28;2027;-40
2023/01/10 17:16:51;;;;;;;;;;;;;;;;;;4991487;28;1836;-40
2023/01/10 17:19:18;;;;;;;;;;;;;;;;;;4991323;28;1875;-40
2023/01/10 17:21:46;;;;;;;;;;;;;;;;;;4991883;28;2081;-40
2023/01/10 17:24:13;;;;;;;;;;;;;;;;;;4991780;28;1988;-39
2023/01/10 17:26:40;;;;;;;;;;;;;;;;;;4991886;28;1976;-43
2023/01/10 17:29:07;;;;;;;;;;;;;;;;;;4991875;28;1721;-40
2023/01/10 17:31:34;;;;;;;;;;;;;;;;;;4991825;28;2048;-40
2023/01/10 17:34:02;;;;;;;;;;;;;;;;;;4991733;28;1912;-46
2023/01/10 17:36:31;;;;;;;;;;;;;;;;;;4991621;28;2052;-39
2023/01/10 17:38:58;;;;;;;;;;;;;;;;;;4991901;28;1986;-40
2023/01/10 17:41:25;;;;;;;;;;;;;;;;;;4991524;28;1979;-38
2023/01/10 17:43:52;;;;;;;;;;;;;;;;;;4991407;28;2067;-41
2023/01/10 17:46:21;;;;;;;;;;;;;;;;;;4991438;28;1967;-40
2023/01/10 17:48:48;;;;;;;;;;;;;;;;;;4991411;28;1836;-40